createdAt,value
2019-02-23T00:00:29.824Z,-0.78
2019-02-23T00:01:29.759Z,-0.83
2019-02-23T00:02:29.747Z,-0.85
2019-02-23T00:03:29.737Z,-0.90
2019-02-23T00:04:29.739Z,-0.85
2019-02-23T00:05:29.774Z,-0.92
2019-02-23T00:06:30.317Z,-0.89
2019-02-23T00:07:29.696Z,-0.97
2019-02-23T00:08:29.685Z,-0.96
2019-02-23T00:09:29.673Z,-0.99
2019-02-23T00:10:29.730Z,-0.92
2019-02-23T00:11:29.650Z,-0.85
2019-02-23T00:12:29.663Z,-0.96
2019-02-23T00:13:29.628Z,-0.89
2019-02-23T00:14:29.669Z,-0.99
2019-02-23T00:15:29.610Z,-0.95
2019-02-23T00:16:29.655Z,-0.89
2019-02-23T00:17:29.584Z,-0.81
2019-02-23T00:18:29.590Z,-0.85
2019-02-23T00:19:29.568Z,-0.74
2019-02-23T00:20:29.554Z,-0.67
2019-02-23T00:21:29.589Z,-0.76
2019-02-23T00:22:29.535Z,-0.62
2019-02-23T00:23:29.536Z,-0.76
2019-02-23T00:24:29.511Z,-0.83
2019-02-23T00:25:29.549Z,-0.89
2019-02-23T00:26:29.791Z,-0.89
2019-02-23T00:27:29.488Z,-0.83
2019-02-23T00:28:29.507Z,-0.90
2019-02-23T00:29:29.465Z,-0.99
2019-02-23T00:30:29.452Z,-0.99
2019-02-23T00:31:29.509Z,-0.92
2019-02-23T00:32:29.427Z,-0.93
2019-02-23T00:33:29.417Z,-0.96
2019-02-23T00:34:29.412Z,-0.97
2019-02-23T00:35:29.402Z,-0.97
2019-02-23T00:36:29.443Z,-0.85
2019-02-23T00:37:29.371Z,-0.78
2019-02-23T00:38:29.383Z,-0.90
2019-02-23T00:39:29.352Z,-0.99
2019-02-23T00:40:29.339Z,-1.05
2019-02-23T00:41:29.373Z,-0.97
2019-02-23T00:42:29.319Z,-0.96
2019-02-23T00:43:29.307Z,-1.07
2019-02-23T00:44:29.332Z,-0.99
2019-02-23T00:45:29.290Z,-1.03
2019-02-23T00:46:29.322Z,-1.05
2019-02-23T00:47:29.801Z,-1.13
2019-02-23T00:48:29.255Z,-1.18
2019-02-23T00:49:36.301Z,-1.15
2019-02-23T00:50:30.240Z,-1.23
2019-02-23T00:51:29.264Z,-1.18
2019-02-23T00:52:29.358Z,-1.17
2019-02-23T00:53:29.200Z,-1.25
2019-02-23T00:54:29.188Z,-1.18
2019-02-23T00:55:29.184Z,-1.31
2019-02-23T00:56:29.183Z,-1.32
2019-02-23T00:57:29.220Z,-1.31
2019-02-23T00:58:29.146Z,-1.41
2019-02-23T00:59:29.136Z,-1.39
2019-02-23T01:00:29.132Z,-1.44
2019-02-23T01:01:29.116Z,-1.44
2019-02-23T01:02:29.171Z,-1.39
2019-02-23T01:03:29.093Z,-1.33
2019-02-23T01:04:29.081Z,-1.35
2019-02-23T01:05:29.073Z,-1.35
2019-02-23T01:06:29.058Z,-1.38
2019-02-23T01:07:29.103Z,-1.25
2019-02-23T01:08:29.037Z,-1.29
2019-02-23T01:09:29.088Z,-1.31
2019-02-23T01:10:29.014Z,-1.32
2019-02-23T01:11:29.003Z,-1.28
2019-02-23T01:12:29.000Z,-1.41
2019-02-23T01:13:29.000Z,-1.41
2019-02-23T01:14:29.036Z,-1.38
2019-02-23T01:15:28.962Z,-1.38
2019-02-23T01:16:28.953Z,-1.36
2019-02-23T01:17:28.946Z,-1.38
2019-02-23T01:18:28.927Z,-1.33
2019-02-23T01:19:28.958Z,-1.36
2019-02-23T01:20:28.931Z,-1.39
2019-02-23T01:21:28.896Z,-1.46
2019-02-23T01:22:28.886Z,-1.35
2019-02-23T01:23:28.875Z,-1.35
2019-02-23T01:24:28.909Z,-1.43
2019-02-23T01:25:28.852Z,-1.38
2019-02-23T01:26:28.839Z,-1.41
2019-02-23T01:27:28.890Z,-1.38
2019-02-23T01:28:28.818Z,-1.33
2019-02-23T01:29:28.807Z,-1.50
2019-02-23T01:30:28.796Z,-1.39
2019-02-23T01:31:28.784Z,-1.39
2019-02-23T01:32:28.832Z,-1.51
2019-02-23T01:33:28.780Z,-1.36
2019-02-23T01:34:28.749Z,-1.39
2019-02-23T01:35:28.739Z,-1.47
2019-02-23T01:36:28.729Z,-1.38
2019-02-23T01:37:28.784Z,-1.39
2019-02-23T01:38:28.708Z,-1.38
2019-02-23T01:39:28.701Z,-1.38
2019-02-23T01:40:28.687Z,-1.39
2019-02-23T01:41:28.675Z,-1.35
2019-02-23T01:42:28.716Z,-1.35
2019-02-23T01:43:28.653Z,-1.39
2019-02-23T01:44:28.685Z,-1.49
2019-02-23T01:45:28.645Z,-1.38
2019-02-23T01:46:28.629Z,-1.46
2019-02-23T01:47:28.609Z,-1.43
2019-02-23T01:48:28.599Z,-1.41
2019-02-23T01:49:28.639Z,-1.53
2019-02-23T01:50:28.578Z,-1.56
2019-02-23T01:51:28.581Z,-1.59
2019-02-23T01:52:28.558Z,-1.57
2019-02-23T01:53:28.550Z,-1.61
2019-02-23T01:54:28.583Z,-1.64
2019-02-23T01:55:28.526Z,-1.65
2019-02-23T01:56:28.514Z,-1.74
2019-02-23T01:57:28.567Z,-1.72
2019-02-23T01:58:28.498Z,-1.70
2019-02-23T01:59:28.560Z,-1.70
2019-02-23T02:00:28.474Z,-1.77
2019-02-23T02:01:28.462Z,-1.78
2019-02-23T02:02:28.450Z,-1.85
2019-02-23T02:03:28.505Z,-1.86
2019-02-23T02:04:28.432Z,-1.68
2019-02-23T02:05:28.416Z,-1.64
2019-02-23T02:06:28.451Z,-1.64
2019-02-23T02:07:28.398Z,-1.72
2019-02-23T02:08:28.432Z,-1.67
2019-02-23T02:09:28.395Z,-1.57
2019-02-23T02:10:28.361Z,-1.54
2019-02-23T02:11:28.350Z,-1.64
2019-02-23T02:12:28.403Z,-1.47
2019-02-23T02:13:28.327Z,-1.59
2019-02-23T02:14:28.319Z,-1.59
2019-02-23T02:15:28.326Z,-1.54
2019-02-23T02:16:28.300Z,-1.56
2019-02-23T02:17:28.347Z,-1.59
2019-02-23T02:18:28.279Z,-1.77
2019-02-23T02:19:28.264Z,-1.72
2019-02-23T02:20:28.251Z,-1.68
2019-02-23T02:21:28.250Z,-1.74
2019-02-23T02:22:28.277Z,-1.68
2019-02-23T02:23:28.224Z,-1.72
2019-02-23T02:24:28.212Z,-1.71
2019-02-23T02:25:28.199Z,-1.65
2019-02-23T02:26:28.233Z,-1.70
2019-02-23T02:27:28.188Z,-1.72
2019-02-23T02:28:28.175Z,-1.64
2019-02-23T02:29:28.202Z,-1.67
2019-02-23T02:30:28.152Z,-1.57
2019-02-23T02:31:28.188Z,-1.61
2019-02-23T02:32:28.120Z,-1.44
2019-02-23T02:33:28.127Z,-1.54
2019-02-23T02:34:28.110Z,-1.54
2019-02-23T02:35:28.089Z,-1.59
2019-02-23T02:36:28.126Z,-1.61
2019-02-23T02:37:28.071Z,-1.59
2019-02-23T02:38:28.059Z,-1.59
2019-02-23T02:39:28.057Z,-1.57
2019-02-23T02:40:28.086Z,-1.61
2019-02-23T02:41:28.035Z,-1.59
2019-02-23T02:42:28.062Z,-1.54
2019-02-23T02:43:28.002Z,-1.67
2019-02-23T02:44:28.001Z,-1.67
2019-02-23T02:45:28.033Z,-1.71
2019-02-23T02:46:27.984Z,-1.78
2019-02-23T02:47:28.023Z,-1.86
2019-02-23T02:48:27.950Z,-1.93
2019-02-23T02:49:27.936Z,-1.86
2019-02-23T02:50:27.931Z,-1.86
2019-02-23T02:51:27.919Z,-1.96
2019-02-23T02:52:27.972Z,-2.04
2019-02-23T02:53:28.242Z,-2.00
2019-02-23T02:54:27.936Z,-2.00
2019-02-23T02:55:27.928Z,-2.03
2019-02-23T02:56:27.864Z,-1.96
2019-02-23T02:57:27.853Z,-2.06
2019-02-23T02:58:27.867Z,-2.03
2019-02-23T02:59:27.831Z,-1.98
2019-02-23T03:00:27.867Z,-1.95
2019-02-23T03:01:27.822Z,-1.89
2019-02-23T03:02:27.796Z,-1.95
2019-02-23T03:03:27.841Z,-2.03
2019-02-23T03:04:27.799Z,-1.98
2019-02-23T03:05:27.776Z,-2.08
2019-02-23T03:06:27.759Z,-2.14
2019-02-23T03:07:27.752Z,-2.08
2019-02-23T03:08:27.789Z,-2.10
2019-02-23T03:09:28.230Z,-2.10
2019-02-23T03:10:27.761Z,-1.92
2019-02-23T03:11:27.740Z,-1.90
2019-02-23T03:12:27.702Z,-1.74
2019-02-23T03:13:27.685Z,-1.72
2019-02-23T03:14:27.724Z,-1.57
2019-02-23T03:15:27.700Z,-1.61
2019-02-23T03:16:27.666Z,-1.54
2019-02-23T03:17:27.641Z,-1.51
2019-02-23T03:18:27.636Z,-1.67
2019-02-23T03:19:27.684Z,-1.74
2019-02-23T03:20:36.367Z,-1.74
2019-02-23T03:21:28.605Z,-1.77
2019-02-23T03:22:27.607Z,-1.92
2019-02-23T03:23:27.578Z,-1.89
2019-02-23T03:24:27.567Z,-1.92
2019-02-23T03:25:27.616Z,-1.78
2019-02-23T03:26:27.553Z,-1.82
2019-02-23T03:27:27.535Z,-1.83
2019-02-23T03:28:27.561Z,-1.89
2019-02-23T03:29:27.513Z,-1.93
2019-02-23T03:30:27.556Z,-2.01
2019-02-23T03:31:27.494Z,-1.98
2019-02-23T03:32:27.492Z,-1.90
2019-02-23T03:33:27.493Z,-1.92
2019-02-23T03:34:27.464Z,-1.95
2019-02-23T03:35:27.530Z,-1.90
2019-02-23T03:36:27.444Z,-1.92
2019-02-23T03:37:27.434Z,-1.89
2019-02-23T03:38:27.422Z,-2.00
2019-02-23T03:39:27.413Z,-2.06
2019-02-23T03:40:27.446Z,-1.95
2019-02-23T03:41:27.757Z,-2.00
2019-02-23T03:42:27.381Z,-2.01
2019-02-23T03:43:27.372Z,-2.04
2019-02-23T03:44:27.369Z,-2.07
2019-02-23T03:45:27.351Z,-2.18
2019-02-23T03:46:27.396Z,-2.13
2019-02-23T03:47:27.330Z,-2.13
2019-02-23T03:48:27.314Z,-2.16
2019-02-23T03:49:27.329Z,-2.14
2019-02-23T03:50:27.299Z,-2.14
2019-02-23T03:51:27.346Z,-2.11
2019-02-23T03:52:27.274Z,-2.14
2019-02-23T03:53:27.264Z,-2.18
2019-02-23T03:54:27.253Z,-2.19
2019-02-23T03:55:27.253Z,-2.19
2019-02-23T03:56:27.275Z,-2.13
2019-02-23T03:57:27.224Z,-2.07
2019-02-23T03:58:27.268Z,-2.14
2019-02-23T03:59:27.202Z,-2.18
2019-02-23T04:00:27.196Z,-2.03
2019-02-23T04:01:27.235Z,-2.00
2019-02-23T04:02:27.174Z,-2.18
2019-02-23T04:03:27.210Z,-2.11
2019-02-23T04:04:27.151Z,-2.16
2019-02-23T04:05:27.139Z,-2.14
2019-02-23T04:06:27.132Z,-2.14
2019-02-23T04:07:27.188Z,-2.11
2019-02-23T04:08:27.113Z,-2.01
2019-02-23T04:09:27.096Z,-2.04
2019-02-23T04:10:27.093Z,-2.13
2019-02-23T04:11:27.079Z,-2.16
2019-02-23T04:12:27.122Z,-2.18
2019-02-23T04:13:27.069Z,-2.16
2019-02-23T04:14:27.052Z,-2.21
2019-02-23T04:15:27.037Z,-2.14
2019-02-23T04:16:27.028Z,-2.13
2019-02-23T04:17:27.096Z,-2.28
2019-02-23T04:18:27.005Z,-2.24
2019-02-23T04:19:27.013Z,-2.25
2019-02-23T04:20:26.997Z,-2.32
2019-02-23T04:21:26.974Z,-2.32
2019-02-23T04:22:27.022Z,-2.37
2019-02-23T04:23:26.949Z,-2.35
2019-02-23T04:24:26.960Z,-2.28
2019-02-23T04:25:26.987Z,-2.41
2019-02-23T04:26:26.927Z,-2.26
2019-02-23T04:27:26.965Z,-2.38
2019-02-23T04:28:26.896Z,-2.44
2019-02-23T04:29:26.891Z,-2.37
2019-02-23T04:30:26.880Z,-2.24
2019-02-23T04:31:26.887Z,-2.40
2019-02-23T04:32:26.914Z,-2.41
2019-02-23T04:33:26.849Z,-2.38
2019-02-23T04:34:26.885Z,-2.37
2019-02-23T04:35:26.824Z,-2.32
2019-02-23T04:36:26.821Z,-2.32
2019-02-23T04:37:26.807Z,-2.26
2019-02-23T04:38:26.871Z,-2.28
2019-02-23T04:39:26.785Z,-2.29
2019-02-23T04:40:26.775Z,-2.22
2019-02-23T04:41:26.856Z,-2.37
2019-02-23T04:42:26.751Z,-2.29
2019-02-23T04:43:26.807Z,-2.33
2019-02-23T04:44:26.736Z,-2.47
2019-02-23T04:45:26.741Z,-2.33
2019-02-23T04:46:26.728Z,-2.25
2019-02-23T04:47:26.701Z,-2.18
2019-02-23T04:48:26.739Z,-2.19
2019-02-23T04:49:26.702Z,-2.25
2019-02-23T04:50:26.676Z,-2.37
2019-02-23T04:51:26.705Z,-2.25
2019-02-23T04:52:26.658Z,-2.37
2019-02-23T04:53:26.642Z,-2.35
2019-02-23T04:54:26.626Z,-2.35
2019-02-23T04:55:26.691Z,-2.41
2019-02-23T04:56:26.688Z,-2.43
2019-02-23T04:57:26.601Z,-2.46
2019-02-23T04:58:26.584Z,-2.37
2019-02-23T04:59:26.576Z,-2.37
2019-02-23T05:00:26.653Z,-2.35
2019-02-23T05:01:26.615Z,-2.38
2019-02-23T05:02:26.542Z,-2.35
2019-02-23T05:03:26.549Z,-2.26
2019-02-23T05:04:26.523Z,-2.35
2019-02-23T05:05:26.516Z,-2.22
2019-02-23T05:06:26.717Z,-2.25
2019-02-23T05:07:26.688Z,-2.35
2019-02-23T05:08:26.492Z,-2.43
2019-02-23T05:09:26.468Z,-2.46
2019-02-23T05:10:26.491Z,-2.40
2019-02-23T05:11:26.453Z,-2.46
2019-02-23T05:12:26.525Z,-2.50
2019-02-23T05:13:26.425Z,-2.55
2019-02-23T05:14:26.416Z,-2.56
2019-02-23T05:15:26.441Z,-2.62
2019-02-23T05:16:26.441Z,-2.65
2019-02-23T05:17:26.447Z,-2.62
2019-02-23T05:18:26.379Z,-2.58
2019-02-23T05:19:26.364Z,-2.64
2019-02-23T05:20:26.364Z,-2.61
2019-02-23T05:21:27.066Z,-2.58
2019-02-23T05:22:26.386Z,-2.56
2019-02-23T05:23:26.330Z,-2.48
2019-02-23T05:24:26.310Z,-2.56
2019-02-23T05:25:26.306Z,-2.56
2019-02-23T05:26:26.302Z,-2.58
2019-02-23T05:27:26.365Z,-2.55
2019-02-23T05:28:26.279Z,-2.64
2019-02-23T05:29:26.455Z,-2.65
2019-02-23T05:30:26.245Z,-2.64
2019-02-23T05:31:27.115Z,-2.69
2019-02-23T05:32:26.276Z,-2.65
2019-02-23T05:33:26.224Z,-2.59
2019-02-23T05:34:26.261Z,-2.61
2019-02-23T05:35:26.198Z,-2.69
2019-02-23T05:36:26.190Z,-2.65
2019-02-23T05:37:26.266Z,-2.58
2019-02-23T05:38:26.166Z,-2.58
2019-02-23T05:39:26.162Z,-2.51
2019-02-23T05:40:26.144Z,-2.62
2019-02-23T05:41:26.147Z,-2.62
2019-02-23T05:42:27.234Z,-2.58
2019-02-23T05:43:26.117Z,-2.62
2019-02-23T05:44:26.185Z,-2.61
2019-02-23T05:45:26.091Z,-2.58
2019-02-23T05:46:26.077Z,-2.59
2019-02-23T05:47:26.076Z,-2.55
2019-02-23T05:48:26.122Z,-2.46
2019-02-23T05:49:26.179Z,-2.33
2019-02-23T05:50:26.053Z,-2.46
2019-02-23T05:51:38.070Z,-2.56
2019-02-23T05:52:27.013Z,-2.59
2019-02-23T05:53:26.065Z,-2.58
2019-02-23T05:54:26.172Z,-2.61
2019-02-23T05:55:25.988Z,-2.55
2019-02-23T05:56:25.976Z,-2.55
2019-02-23T05:57:25.957Z,-2.53
2019-02-23T05:58:25.952Z,-2.51
2019-02-23T05:59:26.034Z,-2.59
2019-02-23T06:00:25.933Z,-2.65
2019-02-23T06:01:25.936Z,-2.59
2019-02-23T06:02:25.923Z,-2.69
2019-02-23T06:03:25.995Z,-2.79
2019-02-23T06:04:25.946Z,-2.76
2019-02-23T06:05:26.104Z,-2.76
2019-02-23T06:06:25.875Z,-2.80
2019-02-23T06:07:25.867Z,-2.77
2019-02-23T06:08:25.881Z,-2.76
2019-02-23T06:09:25.894Z,-2.82
2019-02-23T06:10:26.223Z,-2.77
2019-02-23T06:11:25.829Z,-2.80
2019-02-23T06:12:25.804Z,-2.72
2019-02-23T06:13:25.811Z,-2.84
2019-02-23T06:14:25.791Z,-2.82
2019-02-23T06:15:25.825Z,-2.79
2019-02-23T06:16:25.773Z,-2.74
2019-02-23T06:17:25.755Z,-2.72
2019-02-23T06:18:25.755Z,-2.74
2019-02-23T06:19:25.750Z,-2.83
2019-02-23T06:20:25.778Z,-2.79
2019-02-23T06:21:25.712Z,-2.72
2019-02-23T06:22:25.721Z,-2.77
2019-02-23T06:23:26.705Z,-2.71
2019-02-23T06:24:25.730Z,-2.87
2019-02-23T06:25:25.745Z,-2.80
2019-02-23T06:26:25.693Z,-2.82
2019-02-23T06:27:25.704Z,-2.89
2019-02-23T06:28:25.646Z,-2.84
2019-02-23T06:29:25.664Z,-2.84
2019-02-23T06:30:25.624Z,-2.80
2019-02-23T06:31:25.635Z,-2.84
2019-02-23T06:32:25.684Z,-2.83
2019-02-23T06:33:25.585Z,-2.82
2019-02-23T06:34:25.575Z,-2.83
2019-02-23T06:35:25.571Z,-2.77
2019-02-23T06:36:25.568Z,-2.72
2019-02-23T06:37:25.595Z,-2.69
2019-02-23T06:38:25.539Z,-2.83
2019-02-23T06:39:25.539Z,-2.82
2019-02-23T06:40:25.563Z,-2.76
2019-02-23T06:41:25.503Z,-2.71
2019-02-23T06:42:25.632Z,-2.74
2019-02-23T06:43:25.498Z,-2.68
2019-02-23T06:44:25.466Z,-2.76
2019-02-23T06:45:25.460Z,-2.61
2019-02-23T06:46:25.538Z,-2.58
2019-02-23T06:47:25.487Z,-2.56
2019-02-23T06:48:25.431Z,-2.65
2019-02-23T06:49:25.433Z,-2.66
2019-02-23T06:50:25.409Z,-2.58
2019-02-23T06:51:25.466Z,-2.61
2019-02-23T06:52:25.469Z,-2.59
2019-02-23T06:53:25.372Z,-2.64
2019-02-23T06:54:25.389Z,-2.62
2019-02-23T06:55:25.356Z,-2.64
2019-02-23T06:56:25.347Z,-2.64
2019-02-23T06:57:25.416Z,-2.56
2019-02-23T06:58:25.321Z,-2.59
2019-02-23T06:59:25.312Z,-2.56
2019-02-23T07:00:25.357Z,-2.51
2019-02-23T07:01:25.360Z,-2.56
2019-02-23T07:02:25.350Z,-2.59
2019-02-23T07:03:25.297Z,-2.56
2019-02-23T07:04:25.265Z,-2.56
2019-02-23T07:05:25.251Z,-2.62
2019-02-23T07:06:25.236Z,-2.44
2019-02-23T07:07:25.304Z,-2.43
2019-02-23T07:08:25.254Z,-2.41
2019-02-23T07:09:25.229Z,-2.41
2019-02-23T07:10:25.197Z,-2.41
2019-02-23T07:11:25.201Z,-2.46
2019-02-23T07:12:25.237Z,-2.37
2019-02-23T07:13:25.161Z,-2.50
2019-02-23T07:14:26.088Z,-2.43
2019-02-23T07:15:25.169Z,-2.41
2019-02-23T07:16:25.125Z,-2.47
2019-02-23T07:17:25.192Z,-2.38
2019-02-23T07:18:25.111Z,-2.35
2019-02-23T07:19:25.176Z,-2.33
2019-02-23T07:20:26.410Z,-2.40
2019-02-23T07:21:25.100Z,-2.26
2019-02-23T07:22:25.359Z,-2.26
2019-02-23T07:23:25.233Z,-2.29
2019-02-23T07:24:25.058Z,-2.16
2019-02-23T07:25:25.037Z,-2.18
2019-02-23T07:26:25.031Z,-2.33
2019-02-23T07:27:25.066Z,-2.29
2019-02-23T07:28:25.116Z,-2.33
2019-02-23T07:29:25.062Z,-2.25
2019-02-23T07:30:25.013Z,-2.29
2019-02-23T07:31:24.989Z,-2.37
2019-02-23T07:32:25.022Z,-2.37
2019-02-23T07:33:32.942Z,-2.33
2019-02-23T07:34:25.953Z,-2.26
2019-02-23T07:35:24.939Z,-2.21
2019-02-23T07:36:25.143Z,-2.16
2019-02-23T07:37:24.954Z,-2.06
2019-02-23T07:38:24.897Z,-2.01
2019-02-23T07:39:24.922Z,-2.04
2019-02-23T07:40:24.884Z,-2.00
2019-02-23T07:41:24.917Z,-2.08
2019-02-23T07:42:24.925Z,-2.04
2019-02-23T07:43:24.890Z,-1.98
2019-02-23T07:44:24.838Z,-2.10
2019-02-23T07:45:24.831Z,-2.03
2019-02-23T07:46:24.868Z,-2.19
2019-02-23T07:47:24.865Z,-2.10
2019-02-23T07:48:24.798Z,-2.07
2019-02-23T07:49:24.812Z,-2.06
2019-02-23T07:50:25.780Z,-1.86
2019-02-23T07:51:24.800Z,-0.99
2019-02-23T07:52:26.650Z,-0.20
2019-02-23T07:53:24.747Z,0.60
2019-02-23T07:54:24.732Z,1.57
2019-02-23T07:55:24.723Z,2.25
2019-02-23T07:56:24.716Z,2.41
2019-02-23T07:57:24.779Z,2.59
2019-02-23T07:58:24.700Z,2.80
2019-02-23T07:59:24.698Z,2.90
2019-02-23T08:00:25.574Z,2.90
2019-02-23T08:01:24.669Z,3.16
2019-02-23T08:02:25.892Z,3.19
2019-02-23T08:03:24.649Z,3.31
2019-02-23T08:04:24.683Z,3.26
2019-02-23T08:05:25.556Z,3.41
2019-02-23T08:06:24.607Z,4.00
2019-02-23T08:07:24.671Z,4.67
2019-02-23T08:08:24.601Z,5.06
2019-02-23T08:09:24.591Z,5.41
2019-02-23T08:10:24.558Z,5.77
2019-02-23T08:11:24.551Z,5.80
2019-02-23T08:12:24.599Z,4.87
2019-02-23T08:13:24.523Z,4.28
2019-02-23T08:14:24.586Z,4.50
2019-02-23T08:15:24.553Z,4.44
2019-02-23T08:16:24.494Z,4.68
2019-02-23T08:17:24.584Z,5.22
2019-02-23T08:18:24.484Z,5.62
2019-02-23T08:19:24.527Z,6.08
2019-02-23T08:20:24.451Z,6.60
2019-02-23T08:21:24.566Z,6.17
2019-02-23T08:22:24.705Z,5.75
2019-02-23T08:23:24.432Z,5.59
2019-02-23T08:24:24.728Z,5.55
2019-02-23T08:25:24.390Z,5.45
2019-02-23T08:26:24.383Z,5.17
2019-02-23T08:27:24.991Z,4.93
2019-02-23T08:28:24.373Z,4.80
2019-02-23T08:29:24.433Z,5.20
2019-02-23T08:30:24.337Z,5.92
2019-02-23T08:31:24.337Z,5.78
2019-02-23T08:32:24.384Z,5.19
2019-02-23T08:33:24.308Z,5.06
2019-02-23T08:34:24.304Z,5.09
2019-02-23T08:35:24.285Z,5.11
2019-02-23T08:36:24.275Z,5.04
2019-02-23T08:37:25.070Z,5.23
2019-02-23T08:38:24.310Z,5.48
2019-02-23T08:39:24.249Z,5.66
2019-02-23T08:40:24.240Z,5.73
2019-02-23T08:41:24.247Z,5.93
2019-02-23T08:42:24.262Z,6.02
2019-02-23T08:43:24.200Z,5.93
2019-02-23T08:44:24.187Z,5.42
2019-02-23T08:45:24.175Z,5.66
2019-02-23T08:46:24.212Z,5.87
2019-02-23T08:47:24.221Z,5.99
2019-02-23T08:48:24.155Z,6.13
2019-02-23T08:49:24.156Z,5.75
2019-02-23T08:50:24.122Z,5.88
2019-02-23T08:51:24.123Z,5.98
2019-02-23T08:52:24.159Z,5.67
2019-02-23T08:53:24.095Z,5.80
2019-02-23T08:54:24.081Z,5.52
2019-02-23T08:55:24.109Z,5.42
2019-02-23T08:56:35.187Z,5.48
2019-02-23T08:57:24.163Z,5.74
2019-02-23T08:58:24.054Z,5.74
2019-02-23T08:59:24.035Z,6.06
2019-02-23T09:00:24.032Z,6.02
2019-02-23T09:01:24.128Z,5.90
2019-02-23T09:02:24.145Z,6.10
2019-02-23T09:03:23.991Z,6.13
2019-02-23T09:04:26.760Z,5.99
2019-02-23T09:05:24.039Z,6.08
2019-02-23T09:06:23.972Z,6.10
2019-02-23T09:07:24.030Z,6.35
2019-02-23T09:08:23.955Z,6.87
2019-02-23T09:09:23.986Z,7.14
2019-02-23T09:10:23.926Z,6.90
2019-02-23T09:11:23.919Z,6.68
2019-02-23T09:12:23.953Z,6.69
2019-02-23T09:13:23.872Z,6.16
2019-02-23T09:14:23.867Z,6.13
2019-02-23T09:15:23.946Z,6.06
2019-02-23T09:16:23.842Z,6.05
2019-02-23T09:17:23.826Z,6.39
2019-02-23T09:18:23.871Z,6.90
2019-02-23T09:19:23.828Z,7.01
2019-02-23T09:20:29.246Z,6.71
2019-02-23T09:21:24.791Z,6.69
2019-02-23T09:22:23.796Z,6.96
2019-02-23T09:23:23.828Z,7.34
2019-02-23T09:24:23.762Z,7.15
2019-02-23T09:25:23.749Z,6.82
2019-02-23T09:26:23.733Z,6.78
2019-02-23T09:27:23.777Z,7.09
2019-02-23T09:28:23.713Z,7.42
2019-02-23T09:29:23.700Z,7.48
2019-02-23T09:30:23.728Z,7.26
2019-02-23T09:31:23.698Z,7.54
2019-02-23T09:32:23.734Z,7.62
2019-02-23T09:33:23.667Z,6.78
2019-02-23T09:34:23.639Z,7.04
2019-02-23T09:35:23.645Z,6.82
2019-02-23T09:36:23.628Z,6.64
2019-02-23T09:37:23.666Z,6.42
2019-02-23T09:38:23.612Z,6.86
2019-02-23T09:39:34.707Z,6.68
2019-02-23T09:40:23.609Z,6.57
2019-02-23T09:41:23.575Z,6.64
2019-02-23T09:42:23.590Z,7.63
2019-02-23T09:43:23.599Z,7.76
2019-02-23T09:44:23.578Z,7.76
2019-02-23T09:45:23.528Z,7.51
2019-02-23T09:46:23.514Z,7.37
2019-02-23T09:47:23.507Z,7.69
2019-02-23T09:48:23.531Z,8.29
2019-02-23T09:49:23.476Z,8.03
2019-02-23T09:50:23.512Z,7.89
2019-02-23T09:51:23.494Z,8.14
2019-02-23T09:52:23.444Z,7.92
2019-02-23T09:53:23.468Z,7.57
2019-02-23T09:54:23.419Z,7.34
2019-02-23T09:55:23.408Z,7.57
2019-02-23T09:56:23.419Z,7.99
2019-02-23T09:57:23.382Z,8.79
2019-02-23T09:58:23.381Z,8.52
2019-02-23T09:59:23.417Z,8.22
2019-02-23T10:00:23.389Z,7.85
2019-02-23T10:01:23.347Z,8.17
2019-02-23T10:02:23.341Z,7.47
2019-02-23T10:03:23.321Z,7.73
2019-02-23T10:04:23.358Z,7.95
2019-02-23T10:05:23.354Z,8.00
2019-02-23T10:06:23.312Z,7.84
2019-02-23T10:07:23.278Z,7.71
2019-02-23T10:08:23.266Z,7.71
2019-02-23T10:09:23.260Z,7.86
2019-02-23T10:10:23.256Z,7.94
2019-02-23T10:11:23.585Z,8.21
2019-02-23T10:12:23.231Z,8.04
2019-02-23T10:13:23.217Z,8.43
2019-02-23T10:14:23.197Z,8.46
2019-02-23T10:15:23.191Z,8.60
2019-02-23T10:16:23.180Z,8.25
2019-02-23T10:17:23.227Z,8.24
2019-02-23T10:18:23.156Z,8.14
2019-02-23T10:19:23.150Z,7.99
2019-02-23T10:20:23.133Z,8.42
2019-02-23T10:21:23.125Z,9.22
2019-02-23T10:22:23.126Z,9.32
2019-02-23T10:23:23.140Z,8.97
2019-02-23T10:24:23.097Z,8.97
2019-02-23T10:25:23.102Z,8.39
2019-02-23T10:26:23.065Z,8.28
2019-02-23T10:27:23.059Z,8.47
2019-02-23T10:28:23.118Z,8.03
2019-02-23T10:29:23.037Z,8.27
2019-02-23T10:30:23.026Z,7.82
2019-02-23T10:31:23.034Z,8.21
2019-02-23T10:32:23.005Z,8.29
2019-02-23T10:33:22.994Z,8.61
2019-02-23T10:34:23.014Z,9.22
2019-02-23T10:35:22.985Z,9.27
2019-02-23T10:36:22.972Z,9.06
2019-02-23T10:37:22.963Z,8.83
2019-02-23T10:38:22.948Z,9.01
2019-02-23T10:39:22.926Z,9.13
2019-02-23T10:40:22.973Z,8.86
2019-02-23T10:41:22.903Z,8.83
2019-02-23T10:42:22.893Z,8.70
2019-02-23T10:43:22.889Z,8.32
2019-02-23T10:44:22.879Z,8.64
2019-02-23T10:45:22.861Z,8.46
2019-02-23T10:46:23.084Z,8.29
2019-02-23T10:47:22.837Z,8.43
2019-02-23T10:48:22.827Z,8.78
2019-02-23T10:49:22.849Z,8.70
2019-02-23T10:50:22.806Z,8.91
2019-02-23T10:51:22.795Z,8.71
2019-02-23T10:52:22.828Z,8.80
2019-02-23T10:53:32.391Z,9.12
2019-02-23T10:54:23.755Z,8.78
2019-02-23T10:55:22.751Z,8.27
2019-02-23T10:56:22.744Z,8.55
2019-02-23T10:57:22.727Z,8.82
2019-02-23T10:58:22.780Z,9.10
2019-02-23T10:59:22.706Z,9.01
2019-02-23T11:00:22.719Z,9.12
2019-02-23T11:01:22.687Z,9.13
2019-02-23T11:02:22.676Z,8.91
2019-02-23T11:03:22.672Z,8.70
2019-02-23T11:04:22.746Z,8.50
2019-02-23T11:05:22.652Z,8.50
2019-02-23T11:06:22.659Z,8.40
2019-02-23T11:07:22.614Z,9.13
2019-02-23T11:08:22.645Z,9.53
2019-02-23T11:09:22.618Z,9.60
2019-02-23T11:10:22.588Z,9.55
2019-02-23T11:11:22.574Z,9.45
2019-02-23T11:12:22.573Z,9.32
2019-02-23T11:13:22.550Z,9.10
2019-02-23T11:14:22.580Z,9.22
2019-02-23T11:15:22.539Z,8.78
2019-02-23T11:16:22.521Z,9.06
2019-02-23T11:17:22.522Z,9.16
2019-02-23T11:18:22.498Z,9.01
2019-02-23T11:19:22.486Z,9.03
2019-02-23T11:20:22.517Z,8.75
2019-02-23T11:21:22.471Z,9.16
2019-02-23T11:22:22.456Z,9.44
2019-02-23T11:23:22.459Z,9.17
2019-02-23T11:24:22.546Z,8.94
2019-02-23T11:25:22.423Z,9.24
2019-02-23T11:26:22.451Z,9.32
2019-02-23T11:27:22.401Z,9.24
2019-02-23T11:28:22.404Z,9.10
2019-02-23T11:29:22.400Z,8.85
2019-02-23T11:30:22.373Z,8.88
2019-02-23T11:31:22.368Z,8.86
2019-02-23T11:32:22.383Z,8.47
2019-02-23T11:33:22.336Z,8.29
2019-02-23T11:34:22.329Z,8.29
2019-02-23T11:35:22.369Z,8.78
2019-02-23T11:36:22.316Z,9.34
2019-02-23T11:37:22.293Z,9.06
2019-02-23T11:38:22.288Z,8.93
2019-02-23T11:39:22.274Z,9.12
2019-02-23T11:40:23.575Z,8.96
2019-02-23T11:41:22.291Z,8.71
2019-02-23T11:42:22.240Z,9.00
2019-02-23T11:43:22.236Z,8.89
2019-02-23T11:44:22.217Z,8.94
2019-02-23T11:45:22.209Z,9.15
2019-02-23T11:46:22.196Z,9.16
2019-02-23T11:47:22.219Z,9.58
2019-02-23T11:48:22.175Z,9.32
2019-02-23T11:49:22.191Z,9.44
2019-02-23T11:50:22.151Z,9.32
2019-02-23T11:51:22.141Z,9.70
2019-02-23T11:52:22.134Z,9.91
2019-02-23T11:53:22.186Z,9.96
2019-02-23T11:54:22.112Z,10.25
2019-02-23T11:55:22.121Z,10.01
2019-02-23T11:56:22.152Z,9.50
2019-02-23T11:57:22.076Z,9.59
2019-02-23T11:58:22.108Z,9.73
2019-02-23T11:59:22.235Z,10.09
2019-02-23T12:00:22.046Z,10.36
2019-02-23T12:01:22.046Z,10.46
2019-02-23T12:02:22.020Z,10.35
2019-02-23T12:03:22.023Z,10.17
2019-02-23T12:04:21.998Z,9.62
2019-02-23T12:05:22.024Z,10.02
2019-02-23T12:06:21.978Z,10.32
2019-02-23T12:07:21.970Z,10.10
2019-02-23T12:08:21.955Z,9.89
2019-02-23T12:09:21.981Z,9.67
2019-02-23T12:10:21.938Z,9.38
2019-02-23T12:11:21.921Z,9.63
2019-02-23T12:12:21.914Z,9.55
2019-02-23T12:13:21.983Z,9.44
2019-02-23T12:14:21.889Z,9.91
2019-02-23T12:15:21.914Z,10.06
2019-02-23T12:16:21.866Z,9.68
2019-02-23T12:17:21.902Z,9.38
2019-02-23T12:18:21.846Z,9.45
2019-02-23T12:19:21.850Z,9.65
2019-02-23T12:20:21.829Z,9.55
2019-02-23T12:21:21.815Z,9.95
2019-02-23T12:22:21.804Z,9.91
2019-02-23T12:23:21.831Z,9.95
2019-02-23T12:24:21.783Z,9.83
2019-02-23T12:25:21.780Z,9.88
2019-02-23T12:26:21.772Z,10.32
2019-02-23T12:27:21.751Z,10.44
2019-02-23T12:28:21.738Z,10.58
2019-02-23T12:29:21.764Z,10.32
2019-02-23T12:30:21.725Z,9.93
2019-02-23T12:31:21.708Z,9.99
2019-02-23T12:32:21.711Z,10.58
2019-02-23T12:33:21.682Z,10.51
2019-02-23T12:34:21.670Z,10.90
2019-02-23T12:35:21.701Z,10.55
2019-02-23T12:36:21.649Z,9.89
2019-02-23T12:37:21.640Z,9.52
2019-02-23T12:38:21.667Z,9.67
2019-02-23T12:39:21.636Z,9.88
2019-02-23T12:40:21.639Z,10.17
2019-02-23T12:41:21.593Z,9.93
2019-02-23T12:42:21.582Z,10.02
2019-02-23T12:43:21.571Z,10.06
2019-02-23T12:44:21.558Z,9.53
2019-02-23T12:45:21.617Z,9.50
2019-02-23T12:46:21.536Z,9.70
2019-02-23T12:47:21.525Z,9.59
2019-02-23T12:48:21.508Z,9.91
2019-02-23T12:49:21.500Z,10.17
2019-02-23T12:50:21.487Z,10.04
2019-02-23T12:51:21.547Z,10.06
2019-02-23T12:52:21.465Z,9.93
2019-02-23T12:53:21.460Z,9.78
2019-02-23T12:54:21.459Z,9.71
2019-02-23T12:55:21.447Z,9.92
2019-02-23T12:56:21.424Z,9.60
2019-02-23T12:57:21.474Z,9.83
2019-02-23T12:58:21.401Z,9.91
2019-02-23T12:59:21.393Z,9.73
2019-02-23T13:00:21.377Z,9.75
2019-02-23T13:01:21.367Z,10.16